Brimhall, New Mexico
Current Conditions -  °F | °C
As of 8:53 PM on Tuesday 27 Jan 2015 (Local Time) from KGUP Reporting Station
Few Clouds Few Clouds  
Wind Chill: 39°   Ceiling: Unl
Heat Index: 39°   Visibility: 10mi
Dew Point: 31°   Wind: 3mph
Humidity: 73%   Direction: 40°NE
Pressure: 30.3"   Gusts: NA
Location:  35.78°N, 108.62°W
Report Text: KGUP 280353Z AUTO 04003KT 10SM FEW060 04/M01 A3030 RMK AO2 SLP248 T00391006
Loading
Personal Weather Stations






























Interactive Weather Map New forecast layout! Learn more

10-Day Weather Forecast

Advertisements
Track Severe Weather on mobile